Time;durP1;ratioP1;P1;durP2;ratioP2;P2;SDS_P1;SDS_P2;PMS_P1;PMS_P2;Temp;Humidity;BMP_temperature;BMP_pressure;BME280_temperature;BME280_humidity;BME280_pressure;Samples;Min_cycle;Max_cycle;Signal;HPM_P1;HPM_P2
2021/12/06 00:01:59;;;;;;;47.67;20.05;;;;;;;3.79;62.27;92747.25;4964648;28;20234;-85
2021/12/06 00:04:30;;;;;;;23.98;10.85;;;;;;;4.11;61.07;92741.78;4962849;28;20508;-87
2021/12/06 00:07:00;;;;;;;20.75;10.60;;;;;;;3.93;61.76;92737.47;4963275;28;20094;-88
2021/12/06 00:09:27;;;;;;;25.40;11.77;;;;;;;4.86;60.52;92850.91;4925258;28;20220;-87
2021/12/06 00:11:57;;;;;;;20.58;10.43;;;;;;;3.59;60.16;92658.31;4956539;28;20464;-88
2021/12/06 00:14:27;;;;;;;23.58;11.88;;;;;;;3.31;60.28;92626.06;4939154;28;20043;-87
2021/12/06 00:16:54;;;;;;;22.38;13.35;;;;;;;4.54;61.11;92836.16;4957797;28;20039;-88
2021/12/06 00:19:20;;;;;;;23.60;11.40;;;;;;;4.68;60.99;92850.03;4950787;28;20043;-85
2021/12/06 00:21:50;;;;;;;14.85;8.23;;;;;;;4.70;60.78;92850.50;4945174;28;20043;-85
2021/12/06 00:24:15;;;;;;;21.95;10.38;;;;;;;4.39;60.20;92797.00;4962419;28;20069;-87
2021/12/06 00:26:44;;;;;;;20.88;8.88;;;;;;;4.50;59.09;92790.44;4941245;28;20450;-87
2021/12/06 00:29:09;;;;;;;19.88;9.68;;;;;;;3.09;59.64;92592.66;4957187;28;20667;-87
2021/12/06 00:31:35;;;;;;;19.02;7.78;;;;;;;2.69;59.46;92554.13;4943257;28;20073;-87
2021/12/06 00:34:05;;;;;;;21.33;11.55;;;;;;;3.95;60.74;92747.72;4942936;28;20493;-87
2021/12/06 00:36:33;;;;;;;22.63;10.75;;;;;;;3.27;60.64;92662.69;4967956;28;20046;-86
2021/12/06 00:39:00;;;;;;;23.52;12.00;;;;;;;4.26;61.88;92841.44;4950781;28;20720;-87
2021/12/06 00:41:26;;;;;;;30.55;14.95;;;;;;;3.01;63.03;92653.75;4959006;28;20047;-87
2021/12/06 00:43:52;;;;;;;19.60;10.43;;;;;;;3.23;63.31;92706.38;4964557;28;20053;-87
2021/12/06 00:46:18;;;;;;;24.08;12.32;;;;;;;4.40;64.54;92898.59;4965262;28;20054;-86
2021/12/06 00:48:44;;;;;;;22.50;11.88;;;;;;;2.42;65.25;92621.31;4964955;28;20062;-87
2021/12/06 00:51:11;;;;;;;33.67;14.68;;;;;;;3.05;66.70;92741.41;4963330;28;20150;-86
2021/12/06 00:53:37;;;;;;;22.48;13.20;;;;;;;2.66;66.84;92662.31;4951745;28;20031;-87
2021/12/06 00:56:03;;;;;;;22.23;12.60;;;;;;;1.80;66.65;92530.88;4964854;28;20030;-85
2021/12/06 00:58:29;;;;;;;25.27;12.20;;;;;;;2.18;66.95;92589.22;4966771;28;21403;-85
2021/12/06 01:00:55;;;;;;;23.35;12.30;;;;;;;1.94;67.50;92565.00;4970042;28;20038;-86
2021/12/06 01:03:28;;;;;;;29.17;11.63;;;;;;;3.30;66.54;92729.63;4947114;28;20031;-87
2021/12/06 01:05:53;;;;;;;30.33;12.25;;;;;;;3.25;65.19;92688.47;4963430;28;20383;-86
2021/12/06 01:08:20;;;;;;;25.90;11.70;;;;;;;2.58;64.58;92563.28;4964356;28;20101;-87
2021/12/06 01:10:53;;;;;;;23.60;10.13;;;;;;;2.88;64.39;92594.94;4965187;28;20526;-85
2021/12/06 01:13:19;;;;;;;25.05;12.95;;;;;;;4.54;63.44;92820.34;4964357;28;20105;-87
2021/12/06 01:15:45;;;;;;;16.83;9.52;;;;;;;4.80;62.44;92825.75;4959660;28;20154;-88
2021/12/06 01:18:13;;;;;;;20.13;9.57;;;;;;;5.01;61.79;92861.88;4947646;28;20050;-87
2021/12/06 01:20:47;;;;;;;19.42;10.10;;;;;;;4.96;62.12;92862.00;4965010;28;20026;-87
2021/12/06 01:23:15;;;;;;;16.67;7.80;;;;;;;4.96;61.08;92848.81;4966600;28;20031;-87
2021/12/06 01:33:31;;;;;;;20.58;11.15;;;;;;;5.00;60.74;92860.31;4964495;28;20169;-88
2021/12/06 01:41:20;;;;;;;16.67;8.45;;;;;;;5.18;59.00;92849.88;4958541;28;20574;-87
2021/12/06 01:44:07;;;;;;;16.25;7.47;;;;;;;3.72;59.66;92653.00;4963604;28;20128;-87
2021/12/06 01:46:34;;;;;;;11.77;7.03;;;;;;;4.69;60.23;92804.19;4936736;28;20040;-87
2021/12/06 01:49:00;;;;;;;14.18;6.95;;;;;;;3.32;60.25;92583.75;4960474;28;20126;-87
2021/12/06 01:51:26;;;;;;;15.30;7.45;;;;;;;4.50;61.45;92809.63;4964366;28;20031;-87
2021/12/06 01:53:51;;;;;;;17.35;7.30;;;;;;;4.66;62.70;92808.19;4967478;28;20031;-87
2021/12/06 01:56:17;;;;;;;13.80;7.28;;;;;;;3.38;62.83;92624.59;4965567;28;20038;-87
2021/12/06 01:58:43;;;;;;;15.40;6.93;;;;;;;4.68;62.12;92773.66;4955718;28;20469;-88
2021/12/06 02:01:10;;;;;;;12.70;5.60;;;;;;;3.68;62.20;92636.25;4942723;28;21064;-86
2021/12/06 02:03:36;;;;;;;9.50;5.32;;;;;;;3.62;62.56;92605.94;4965582;28;20049;-88
2021/12/06 02:06:02;;;;;;;12.43;7.53;;;;;;;3.89;63.03;92710.22;4959104;28;20026;-88
2021/12/06 02:08:28;;;;;;;11.55;6.88;;;;;;;4.06;64.01;92743.78;4945256;28;20081;-87
2021/12/06 02:11:00;;;;;;;11.50;7.07;;;;;;;3.88;63.18;92692.88;4945326;28;20295;-87
2021/12/06 02:13:29;;;;;;;14.15;6.45;;;;;;;3.76;61.80;92611.13;4963185;28;20046;-87
2021/12/06 02:15:55;;;;;;;10.00;5.38;;;;;;;3.51;61.94;92588.03;4964657;28;20126;-87
2021/12/06 02:18:40;;;;;;;13.75;8.57;;;;;;;3.03;64.00;92583.34;4960476;28;20029;-86
2021/12/06 02:21:27;;;;;;;24.52;10.18;;;;;;;4.47;63.46;92759.41;4947071;28;20106;-86
2021/12/06 02:23:53;;;;;;;18.45;9.55;;;;;;;4.81;62.32;92777.28;4959570;28;20092;-88
2021/12/06 02:26:19;;;;;;;26.33;12.55;;;;;;;5.38;60.96;92842.19;4961067;28;20082;-88
2021/12/06 02:28:46;;;;;;;23.52;9.10;;;;;;;5.30;61.09;92810.53;4962810;28;20042;-88
2021/12/06 02:31:12;;;;;;;19.30;10.00;;;;;;;5.38;61.08;92818.47;4940450;28;20085;-88
2021/12/06 02:33:38;;;;;;;14.43;7.03;;;;;;;5.34;61.35;92807.00;4941650;28;20137;-88
2021/12/06 02:36:04;;;;;;;10.05;5.68;;;;;;;4.35;62.44;92661.81;4965375;28;20030;-86
2021/12/06 02:38:30;;;;;;;11.52;6.20;;;;;;;5.13;63.19;92811.25;4955781;28;20080;-87
2021/12/06 02:40:55;;;;;;;17.10;6.97;;;;;;;3.14;64.31;92508.47;4960234;28;20118;-87
2021/12/06 02:43:21;;;;;;;12.20;7.30;;;;;;;4.16;64.87;92668.00;4936575;28;20063;-87
2021/12/06 02:45:47;;;;;;;18.77;9.38;;;;;;;3.96;63.93;92636.94;4962954;28;20157;-88
2021/12/06 02:48:14;;;;;;;25.33;12.23;;;;;;;5.33;62.41;92807.31;4960686;28;20642;-87
2021/12/06 02:50:48;;;;;;;24.55;11.80;;;;;;;4.68;60.20;92677.00;4964367;28;20092;-87
2021/12/06 02:53:15;;;;;;;23.38;11.85;;;;;;;2.73;60.87;92473.72;4948600;28;20034;-87
2021/12/06 02:55:42;;;;;;;25.70;10.82;;;;;;;3.33;65.35;92692.28;4958881;28;20035;-87
2021/12/06 02:58:32;;;;;;;23.38;11.80;;;;;;;2.29;65.11;92464.69;4960336;28;20499;-88
2021/12/06 03:00:57;;;;;;;23.80;11.38;;;;;;;3.10;62.92;92504.13;4942016;28;20044;-87
2021/12/06 03:03:23;;;;;;;20.35;10.05;;;;;;;4.40;61.52;92651.16;4941210;28;20538;-88
2021/12/06 03:05:51;;;;;;;19.00;8.98;;;;;;;5.55;61.33;92807.22;4939575;28;20543;-88
2021/12/06 03:08:40;;;;;;;19.67;9.82;;;;;;;5.77;60.32;92817.69;4963525;28;20042;-87
2021/12/06 03:11:12;;;;;;;22.65;11.18;;;;;;;5.33;60.31;92754.59;4942669;28;20375;-88
2021/12/06 03:13:38;;;;;;;26.45;10.98;;;;;;;5.88;59.82;92810.25;4954579;28;20127;-87
2021/12/06 03:16:05;;;;;;;21.48;10.70;;;;;;;4.80;59.91;92655.31;4960638;28;20480;-88
2021/12/06 03:18:31;;;;;;;18.33;9.93;;;;;;;3.72;59.69;92489.97;4954732;28;20141;-89
2021/12/06 03:20:57;;;;;;;22.58;11.07;;;;;;;5.24;59.28;92695.75;4945180;28;20364;-87
2021/12/06 03:23:22;;;;;;;17.08;9.88;;;;;;;5.57;59.63;92765.50;4962549;28;20039;-88
2021/12/06 03:25:48;;;;;;;20.88;9.93;;;;;;;5.83;59.54;92790.06;4937384;28;20521;-87
2021/12/06 03:28:13;;;;;;;19.40;9.57;;;;;;;4.33;59.23;92561.31;4958647;28;20495;-87
2021/12/06 03:30:39;;;;;;;15.00;9.18;;;;;;;5.89;59.40;92777.50;4958998;28;20073;-88
2021/12/06 03:33:05;;;;;;;15.75;8.73;;;;;;;5.12;59.16;92662.88;4961836;28;20081;-87
2021/12/06 03:35:30;;;;;;;17.05;9.73;;;;;;;6.11;58.95;92787.94;4961839;28;20039;-86
2021/12/06 03:37:57;;;;;;;18.27;8.68;;;;;;;4.54;60.31;92594.69;4958456;28;20035;-88
2021/12/06 03:40:23;;;;;;;14.00;7.15;;;;;;;4.77;61.27;92655.16;4948236;28;20070;-87
2021/12/06 03:42:48;;;;;;;17.88;7.95;;;;;;;4.00;60.01;92490.56;4939774;28;20110;-87
2021/12/06 03:45:14;;;;;;;15.32;7.38;;;;;;;3.96;60.50;92504.63;4960075;28;20045;-87
2021/12/06 03:47:41;;;;;;;16.80;8.30;;;;;;;5.09;61.48;92668.75;4942910;28;20015;-87
2021/12/06 03:50:08;;;;;;;13.25;7.78;;;;;;;4.94;59.72;92587.50;4964647;28;20058;-87
2021/12/06 03:52:35;;;;;;;11.43;6.60;;;;;;;6.27;59.92;92802.25;4955780;28;20047;-88
2021/12/06 03:55:02;;;;;;;11.68;7.47;;;;;;;5.47;59.20;92668.22;4962126;28;20038;-87
2021/12/06 03:57:28;;;;;;;17.10;8.50;;;;;;;6.21;59.49;92784.25;4961782;28;20034;-87
2021/12/06 03:59:53;;;;;;;14.25;8.10;;;;;;;5.57;60.69;92753.09;4961314;28;20027;-86
2021/12/06 04:02:23;;;;;;;18.30;9.55;;;;;;;4.72;60.87;92647.41;4955907;28;20116;-87
2021/12/06 04:04:49;;;;;;;20.52;8.80;;;;;;;5.71;61.70;92787.25;4943366;28;20051;-86
2021/12/06 04:07:17;;;;;;;13.20;7.38;;;;;;;5.82;60.57;92762.13;4943060;28;20030;-87
2021/12/06 04:09:43;;;;;;;16.92;8.18;;;;;;;5.33;60.59;92701.84;4960783;28;20050;-87
2021/12/06 04:12:09;;;;;;;14.95;7.32;;;;;;;5.08;61.07;92677.75;4949079;28;20035;-88
2021/12/06 04:14:37;;;;;;;14.40;7.13;;;;;;;6.11;59.80;92798.50;4964999;28;20034;-87
2021/12/06 04:17:03;;;;;;;15.23;7.32;;;;;;;6.17;59.98;92809.69;4956405;28;20443;-85
2021/12/06 04:19:28;;;;;;;14.00;7.57;;;;;;;5.47;59.79;92682.19;4965747;28;20041;-85
2021/12/06 04:21:54;;;;;;;11.80;6.90;;;;;;;6.07;59.10;92738.72;4948603;28;20046;-87
2021/12/06 04:24:31;;;;;;;12.68;6.97;;;;;;;6.22;58.80;92794.50;4958813;28;20033;-87
2021/12/06 04:27:11;;;;;;;14.95;8.30;;;;;;;5.27;59.94;92685.41;4948221;28;20041;-87
2021/12/06 04:29:46;;;;;;;13.27;7.38;;;;;;;4.60;59.97;92592.69;4948045;28;20067;-87
2021/12/06 04:32:14;;;;;;;13.00;6.60;;;;;;;4.43;60.40;92587.34;4946035;28;20054;-87
2021/12/06 04:34:40;;;;;;;11.65;6.38;;;;;;;5.52;60.76;92760.38;4959856;28;20057;-87
2021/12/06 04:37:06;;;;;;;15.40;7.50;;;;;;;5.17;60.54;92708.63;4964461;28;20039;-87
2021/12/06 04:39:33;;;;;;;12.23;6.65;;;;;;;5.37;61.59;92734.44;4949649;28;20384;-87
2021/12/06 04:41:59;;;;;;;12.90;6.90;;;;;;;5.48;61.75;92754.16;4960301;28;20022;-87
2021/12/06 04:44:25;;;;;;;8.50;5.30;;;;;;;5.12;61.66;92691.88;4965470;28;20054;-86
2021/12/06 04:46:51;;;;;;;10.23;5.93;;;;;;;5.99;61.67;92811.53;4961289;28;20046;-87
2021/12/06 04:49:17;;;;;;;10.75;5.88;;;;;;;6.12;61.44;92815.09;4965904;28;20460;-88
2021/12/06 04:51:48;;;;;;;8.60;5.00;;;;;;;6.02;61.03;92787.94;4941074;28;20103;-87
2021/12/06 04:54:16;;;;;;;10.95;5.65;;;;;;;5.75;62.44;92790.84;4961400;28;20044;-87
2021/12/06 04:56:52;;;;;;;12.63;7.43;;;;;;;5.17;61.58;92653.28;4934848;28;20067;-88
2021/12/06 04:59:28;;;;;;;12.63;6.80;;;;;;;5.06;62.79;92690.44;4944114;28;20042;-88
2021/12/06 05:01:57;;;;;;;19.38;9.02;;;;;;;6.06;62.18;92784.69;4943626;28;20184;-87
2021/12/06 05:04:29;;;;;;;14.50;8.25;;;;;;;5.94;61.80;92754.41;4961845;28;20046;-88
2021/12/06 05:07:01;;;;;;;14.50;7.32;;;;;;;4.08;62.00;92476.66;4947091;28;20384;-87
2021/12/06 05:09:34;;;;;;;15.45;8.50;;;;;;;6.34;61.30;92767.47;4961568;28;20528;-87
2021/12/06 05:12:00;;;;;;;12.48;6.30;;;;;;;4.46;61.18;92499.88;4948059;28;20401;-87
2021/12/06 05:14:26;;;;;;;13.70;7.65;;;;;;;6.51;61.23;92801.00;4963979;28;20038;-87
2021/12/06 05:16:53;;;;;;;12.13;7.35;;;;;;;6.30;61.15;92764.69;4943583;28;20050;-87
2021/12/06 05:19:20;;;;;;;17.58;7.65;;;;;;;6.04;61.78;92760.44;4963014;28;20050;-87
2021/12/06 05:21:45;;;;;;;17.52;9.48;;;;;;;5.41;60.46;92616.72;4953687;28;20038;-86
2021/12/06 05:24:11;;;;;;;18.15;8.95;;;;;;;6.45;60.64;92786.44;4962491;28;20604;-87
2021/12/06 05:26:37;;;;;;;20.55;10.93;;;;;;;6.03;60.70;92746.47;4963896;28;20030;-87
2021/12/06 05:29:06;;;;;;;19.05;9.48;;;;;;;5.98;60.70;92734.22;4944492;28;20582;-87
2021/12/06 05:31:34;;;;;;;18.50;9.85;;;;;;;5.61;60.11;92653.03;4966419;28;20086;-87
2021/12/06 05:34:07;;;;;;;16.77;8.88;;;;;;;5.32;59.94;92597.47;4952792;28;20606;-88
2021/12/06 05:36:32;;;;;;;15.18;8.55;;;;;;;5.86;59.72;92688.44;4961175;28;20038;-87
2021/12/06 05:38:58;;;;;;;16.75;7.97;;;;;;;6.19;59.88;92720.44;4968870;28;20029;-87
2021/12/06 05:41:24;;;;;;;14.02;7.65;;;;;;;6.78;59.49;92790.13;4966445;28;20047;-85
2021/12/06 05:43:50;;;;;;;12.70;7.13;;;;;;;5.48;59.65;92599.34;4963597;28;20928;-87
2021/12/06 05:46:15;;;;;;;11.63;6.60;;;;;;;5.50;60.48;92675.50;4962746;28;20069;-87
2021/12/06 05:48:41;;;;;;;19.13;7.68;;;;;;;6.05;60.56;92740.91;4960652;28;20067;-87
2021/12/06 05:51:07;;;;;;;19.95;9.23;;;;;;;4.49;59.92;92481.63;4964882;28;20046;-87
2021/12/06 05:53:34;;;;;;;12.98;7.07;;;;;;;5.78;60.31;92691.81;4948499;28;20375;-87
2021/12/06 05:56:00;;;;;;;16.45;8.77;;;;;;;6.49;60.04;92814.56;4960290;28;20058;-87
2021/12/06 05:58:27;;;;;;;29.95;12.93;;;;;;;5.78;60.49;92691.81;4961705;28;20039;-87
2021/12/06 06:00:56;;;;;;;17.42;8.20;;;;;;;5.78;60.42;92695.22;4958108;28;20042;-86
2021/12/06 06:03:22;;;;;;;19.40;10.88;;;;;;;5.57;60.51;92657.38;4964911;28;20034;-87
2021/12/06 06:05:49;;;;;;;22.65;10.90;;;;;;;6.05;60.35;92717.13;4957127;28;20702;-87
2021/12/06 06:08:16;;;;;;;37.67;19.15;;;;;;;6.17;59.78;92718.09;4941594;28;20042;-86
2021/12/06 06:10:41;;;;;;;28.85;14.50;;;;;;;6.77;59.72;92805.19;4959131;28;20070;-87
2021/12/06 06:13:08;;;;;;;29.05;13.88;;;;;;;6.30;59.79;92745.44;4959472;28;20492;-87
2021/12/06 06:15:34;;;;;;;26.35;14.02;;;;;;;6.56;60.17;92775.22;4959665;28;20037;-88
2021/12/06 06:18:01;;;;;;;18.80;11.63;;;;;;;6.85;60.25;92808.91;4945599;28;20035;-86
2021/12/06 06:20:33;;;;;;;17.50;10.10;;;;;;;6.69;60.92;92784.09;4962131;28;20538;-88
2021/12/06 06:22:59;;;;;;;16.98;9.52;;;;;;;5.08;60.64;92514.38;4964349;28;20114;-88
2021/12/06 06:25:24;;;;;;;18.15;9.95;;;;;;;6.06;60.19;92639.50;4961393;28;20672;-87
2021/12/06 06:27:50;;;;;;;16.95;9.70;;;;;;;6.86;60.99;92807.81;4947303;28;20038;-86
2021/12/06 06:30:16;;;;;;;19.15;9.93;;;;;;;5.17;64.01;92671.72;4959756;28;20125;-88
2021/12/06 06:32:42;;;;;;;28.10;12.65;;;;;;;5.43;68.21;92817.59;4964266;28;20033;-87
2021/12/06 06:35:09;;;;;;;32.08;14.32;;;;;;;3.57;72.45;92674.41;4940336;28;20102;-88
2021/12/06 06:37:35;;;;;;;33.78;14.18;;;;;;;3.71;72.92;92674.34;4966013;28;20038;-87
2021/12/06 06:40:01;;;;;;;40.08;17.98;;;;;;;3.59;75.00;92724.03;4932755;28;20050;-87
2021/12/06 06:42:27;;;;;;;36.42;18.10;;;;;;;2.51;75.15;92538.19;4960896;28;20038;-87
2021/12/06 06:44:54;;;;;;;35.53;18.42;;;;;;;3.46;76.91;92723.00;4960802;28;20026;-86
2021/12/06 06:47:20;;;;;;;34.22;18.30;;;;;;;4.21;77.62;92838.94;4947954;28;20043;-87
2021/12/06 06:49:46;;;;;;;24.73;13.70;;;;;;;3.63;77.98;92790.72;4960570;28;20122;-87
2021/12/06 06:52:13;;;;;;;33.40;13.88;;;;;;;4.25;78.02;92855.72;4964648;28;20031;-87
2021/12/06 06:54:38;;;;;;;25.02;12.00;;;;;;;4.68;77.45;92868.47;4960941;28;20105;-87
2021/12/06 06:57:04;;;;;;;31.45;17.70;;;;;;;3.93;75.68;92716.44;4947164;28;20492;-87
2021/12/06 06:59:30;;;;;;;26.63;14.57;;;;;;;3.18;75.69;92627.69;4960383;28;20505;-86
2021/12/06 07:01:56;;;;;;;33.67;15.52;;;;;;;5.26;74.90;92843.88;4961712;28;20043;-87
2021/12/06 07:04:22;;;;;;;28.90;14.20;;;;;;;4.34;74.03;92741.84;4964316;28;20043;-86
2021/12/06 07:06:47;;;;;;;30.92;14.85;;;;;;;4.49;76.50;92820.47;4944394;28;20046;-87
2021/12/06 07:09:13;;;;;;;26.25;14.73;;;;;;;4.72;75.35;92806.22;4964732;28;20030;-87
2021/12/06 07:11:41;;;;;;;30.15;13.75;;;;;;;4.78;75.86;92835.84;4943061;28;20034;-89
2021/12/06 07:14:06;;;;;;;22.02;11.23;;;;;;;4.30;77.55;92818.00;4962446;28;20035;-88
2021/12/06 07:16:32;;;;;;;24.17;11.02;;;;;;;3.54;76.74;92637.38;4960755;28;20532;-87
2021/12/06 07:18:58;;;;;;;28.27;13.77;;;;;;;3.59;77.58;92721.41;4961568;28;20455;-87
2021/12/06 07:21:24;;;;;;;22.58;13.13;;;;;;;1.63;78.87;92452.81;4960109;28;20028;-86
2021/12/06 07:23:50;;;;;;;31.35;14.05;;;;;;;3.84;79.61;92812.91;4962206;28;22706;-87
2021/12/06 07:26:18;;;;;;;22.48;12.70;;;;;;;3.95;80.19;92835.31;4941365;28;20047;-87
2021/12/06 07:28:45;;;;;;;20.83;11.05;;;;;;;4.05;79.95;92840.34;4929635;28;20046;-87
2021/12/06 07:31:14;;;;;;;23.13;12.25;;;;;;;3.84;80.30;92844.47;4941285;28;20042;-86
2021/12/06 07:33:42;;;;;;;19.88;10.63;;;;;;;3.89;80.07;92857.50;4933252;28;20416;-87
2021/12/06 07:36:10;;;;;;;19.13;10.60;;;;;;;2.80;79.51;92694.59;4942185;28;20105;-86
2021/12/06 07:38:37;;;;;;;20.92;10.05;;;;;;;3.73;79.57;92799.19;4937542;28;20377;-87
2021/12/06 07:41:07;;;;;;;26.98;10.32;;;;;;;3.01;78.96;92716.81;4960483;28;20060;-87
2021/12/06 07:43:33;;;;;;;14.60;8.52;;;;;;;3.51;78.81;92756.28;4941209;28;20061;-86
2021/12/06 07:45:58;;;;;;;15.98;8.20;;;;;;;4.40;78.28;92867.78;4957605;28;20051;-87
2021/12/06 07:48:24;;;;;;;16.15;8.20;;;;;;;4.49;77.74;92849.44;4957564;28;20498;-85
2021/12/06 07:50:55;;;;;;;12.48;6.68;;;;;;;3.39;75.57;92602.50;4940829;28;20026;-88
2021/12/06 07:53:21;;;;;;;12.27;5.90;;;;;;;3.40;73.82;92535.72;4958558;28;20059;-87
2021/12/06 07:55:47;;;;;;;11.00;6.28;;;;;;;3.26;74.42;92579.66;4961510;28;20053;-86
2021/12/06 07:58:12;;;;;;;11.35;5.97;;;;;;;5.45;73.93;92818.03;4943402;28;20053;-88
2021/12/06 08:00:44;;;;;;;10.13;6.88;;;;;;;5.99;71.94;92833.41;4959659;28;20074;-87
2021/12/06 08:03:10;;;;;;;11.75;7.45;;;;;;;4.65;73.08;92732.09;4958508;28;20037;-86
2021/12/06 08:05:38;;;;;;;11.90;6.05;;;;;;;3.27;74.49;92526.06;4959498;28;20128;-87
2021/12/06 08:08:17;;;;;;;10.20;5.95;;;;;;;3.87;74.04;92606.41;4949512;28;20043;-87
2021/12/06 08:10:48;;;;;;;9.50;5.85;;;;;;;5.80;72.94;92855.88;4961077;28;20399;-87
2021/12/06 08:13:17;;;;;;;13.07;6.72;;;;;;;5.59;72.24;92824.00;4942926;28;20046;-87
2021/12/06 08:15:43;;;;;;;12.93;6.70;;;;;;;5.69;72.48;92844.81;4952351;28;20051;-88
2021/12/06 08:18:09;;;;;;;11.07;6.75;;;;;;;5.02;72.23;92747.50;4959500;28;20042;-88
2021/12/06 08:20:37;;;;;;;12.60;6.68;;;;;;;6.20;71.66;92856.63;4958122;28;20038;-87
2021/12/06 08:23:04;;;;;;;14.48;7.40;;;;;;;5.44;70.68;92705.75;4956242;28;20042;-87
2021/12/06 08:25:29;;;;;;;9.52;6.18;;;;;;;4.86;70.26;92627.00;4939332;28;20112;-87
2021/12/06 08:27:55;;;;;;;11.40;6.22;;;;;;;6.35;70.58;92850.91;4965818;28;20069;-87
2021/12/06 08:30:23;;;;;;;14.70;8.02;;;;;;;5.65;71.52;92779.78;4952223;28;20018;-86
2021/12/06 08:32:51;;;;;;;12.18;7.50;;;;;;;4.82;72.31;92673.47;4942985;28;20510;-88
2021/12/06 08:35:17;;;;;;;14.07;7.78;;;;;;;4.67;74.31;92700.97;4947027;28;20173;-86
2021/12/06 08:37:43;;;;;;;10.75;5.72;;;;;;;5.37;74.53;92842.53;4936337;28;20498;-88
2021/12/06 08:40:10;;;;;;;10.20;6.22;;;;;;;4.72;76.29;92793.03;4953326;28;20042;-87
2021/12/06 08:42:35;;;;;;;11.68;5.93;;;;;;;5.09;76.55;92831.38;4959275;28;20050;-87
2021/12/06 08:45:02;;;;;;;6.40;4.72;;;;;;;5.48;75.78;92841.19;4942886;28;20557;-87
2021/12/06 08:47:28;;;;;;;8.82;4.70;;;;;;;4.62;75.12;92701.13;4942360;28;20392;-87
2021/12/06 08:49:53;;;;;;;8.27;5.05;;;;;;;5.63;73.68;92824.94;4961284;28;20030;-87
2021/12/06 08:52:19;;;;;;;7.90;4.60;;;;;;;4.99;72.80;92679.56;4955705;28;20042;-88
2021/12/06 08:54:45;;;;;;;7.57;4.78;;;;;;;6.34;72.71;92834.28;4945612;28;20335;-88
2021/12/06 08:57:11;;;;;;;7.97;4.75;;;;;;;5.24;72.63;92682.56;4962655;28;20834;-87
2021/12/06 08:59:36;;;;;;;9.32;6.00;;;;;;;6.02;71.45;92758.88;4964661;28;20062;-87
2021/12/06 09:02:08;;;;;;;10.23;4.75;;;;;;;6.48;70.31;92820.91;4968766;28;20043;-88
2021/12/06 09:04:38;;;;;;;6.07;3.97;;;;;;;6.32;70.27;92807.38;4964212;28;20042;-87
2021/12/06 09:07:12;;;;;;;10.05;4.43;;;;;;;6.18;70.90;92829.75;4945872;28;20455;-88
2021/12/06 09:09:55;;;;;;;8.45;4.95;;;;;;;5.83;71.91;92787.44;4956030;28;20705;-87
2021/12/06 09:12:25;;;;;;;5.38;3.60;;;;;;;5.60;72.79;92780.72;4954292;28;20533;-86
2021/12/06 09:14:57;;;;;;;6.72;3.88;;;;;;;5.68;73.00;92810.81;4959515;28;20053;-86
2021/12/06 09:17:23;;;;;;;9.20;4.95;;;;;;;5.77;73.53;92822.97;4966477;28;20038;-87
2021/12/06 09:19:50;;;;;;;8.77;4.70;;;;;;;6.01;73.54;92830.47;4948001;28;20082;-87
2021/12/06 09:22:17;;;;;;;8.88;5.63;;;;;;;6.19;73.49;92815.47;4954581;28;20150;-87
2021/12/06 09:24:43;;;;;;;14.40;5.90;;;;;;;6.18;72.47;92819.19;4965798;28;20046;-87
2021/12/06 09:27:21;;;;;;;11.05;5.30;;;;;;;6.19;72.43;92810.19;4979063;28;20027;-87
2021/12/06 09:29:47;;;;;;;8.02;4.60;;;;;;;3.93;70.51;92503.38;4964304;28;20023;-87
2021/12/06 09:32:15;;;;;;;10.40;4.70;;;;;;;6.08;71.72;92827.38;4948379;28;20050;-87
2021/12/06 09:34:54;;;;;;;7.35;3.97;;;;;;;6.32;70.56;92820.59;4958643;28;20051;-87
2021/12/06 09:37:20;;;;;;;7.68;4.50;;;;;;;5.68;69.08;92611.13;4952650;28;20126;-87
2021/12/06 09:39:47;;;;;;;9.32;4.75;;;;;;;6.60;68.69;92778.03;4960846;28;20042;-87
2021/12/06 09:42:13;;;;;;;6.10;3.78;;;;;;;6.04;68.72;92710.31;4961414;28;20110;-87
2021/12/06 09:44:38;;;;;;;5.95;4.32;;;;;;;7.12;67.90;92779.47;4951096;28;20040;-88
2021/12/06 09:47:04;;;;;;;6.47;4.50;;;;;;;6.81;66.16;92687.19;4945196;28;20101;-87
2021/12/06 09:49:30;;;;;;;7.43;4.47;;;;;;;7.51;66.16;92791.63;4961794;28;20042;-86
2021/12/06 09:52:00;;;;;;;6.35;4.20;;;;;;;6.95;67.63;92779.50;4945967;28;20051;-87
2021/12/06 09:54:29;;;;;;;9.23;4.75;;;;;;;5.87;69.71;92635.31;4964826;28;20038;-87
2021/12/06 09:56:56;;;;;;;8.90;7.35;;;;;;;6.83;69.79;92745.81;4961040;28;20160;-87
2021/12/06 09:59:24;;;;;;;11.35;5.28;;;;;;;6.85;71.07;92775.31;4963811;28;20035;-87
2021/12/06 10:02:04;;;;;;;14.93;8.02;;;;;;;6.34;71.79;92751.63;4963145;28;20073;-85
2021/12/06 10:04:34;;;;;;;19.10;8.07;;;;;;;6.28;71.83;92766.06;4963153;28;20039;-86
2021/12/06 10:07:00;;;;;;;11.20;6.30;;;;;;;6.13;71.67;92763.88;4964084;28;20046;-85
2021/12/06 10:09:27;;;;;;;11.70;7.18;;;;;;;5.47;71.52;92653.19;4960135;28;20088;-87
2021/12/06 10:11:58;;;;;;;14.85;7.78;;;;;;;3.92;73.38;92467.63;4959928;28;20035;-87
2021/12/06 10:14:24;;;;;;;11.18;6.22;;;;;;;5.73;74.08;92734.97;4944899;28;20034;-85
2021/12/06 10:16:49;;;;;;;14.35;7.15;;;;;;;5.71;73.89;92742.41;4964514;28;20661;-86
2021/12/06 10:19:15;;;;;;;16.63;7.22;;;;;;;5.55;74.13;92741.28;4946265;28;20117;-87
2021/12/06 10:21:41;;;;;;;17.45;8.68;;;;;;;4.28;72.84;92470.84;4944188;28;20491;-87
2021/12/06 10:24:11;;;;;;;27.90;13.00;;;;;;;5.80;71.51;92613.16;4966006;28;20108;-86
2021/12/06 10:26:37;;;;;;;46.65;14.00;;;;;;;6.39;69.04;92635.28;4936456;28;20030;-86
2021/12/06 10:29:10;;;;;;;21.38;9.38;;;;;;;7.12;67.50;92728.47;4955727;28;20030;-86
2021/12/06 10:31:40;;;;;;;13.35;7.32;;;;;;;7.38;66.41;92704.56;4937563;28;20113;-86
2021/12/06 10:34:06;;;;;;;12.98;6.45;;;;;;;6.83;64.97;92589.91;4947396;28;20050;-87
2021/12/06 10:36:33;;;;;;;12.50;6.55;;;;;;;7.79;63.66;92687.97;4943284;28;20046;-86
2021/12/06 10:39:04;;;;;;;15.88;8.23;;;;;;;7.41;63.50;92595.44;4959432;28;20030;-87
2021/12/06 10:41:32;;;;;;;11.90;6.88;;;;;;;8.07;64.12;92687.13;4963928;28;20047;-85
2021/12/06 10:44:04;;;;;;;10.75;6.03;;;;;;;8.04;63.73;92702.91;4959874;28;20038;-86
2021/12/06 10:46:32;;;;;;;9.65;5.20;;;;;;;7.19;64.14;92607.88;4946537;28;20127;-86
2021/12/06 10:49:02;;;;;;;10.05;5.25;;;;;;;8.03;63.44;92662.41;4960252;28;20041;-87
2021/12/06 10:51:32;;;;;;;12.85;6.45;;;;;;;8.45;62.21;92718.00;4944591;28;20039;-86
2021/12/06 10:54:17;;;;;;;53.92;17.83;;;;;;;8.41;61.88;92664.84;4938429;28;20464;-86
2021/12/06 10:56:47;;;;;;;23.80;11.82;;;;;;;8.46;61.47;92669.19;4947647;28;20042;-88
2021/12/06 10:59:19;;;;;;;17.40;8.25;;;;;;;8.59;60.78;92678.72;4946308;28;20039;-88
2021/12/06 11:01:47;;;;;;;14.57;6.43;;;;;;;8.95;59.34;92675.38;4958847;28;20050;-87
2021/12/06 11:04:16;;;;;;;12.05;6.75;;;;;;;8.70;59.26;92650.72;4960575;28;21043;-87
2021/12/06 11:06:49;;;;;;;10.52;5.43;;;;;;;8.81;59.18;92693.44;4946112;28;20051;-87
2021/12/06 11:09:19;;;;;;;12.68;6.03;;;;;;;8.66;60.18;92723.25;4960555;28;20038;-86
2021/12/06 11:11:49;;;;;;;9.55;5.47;;;;;;;8.97;59.50;92723.53;4961259;28;20031;-86
2021/12/06 11:14:21;;;;;;;10.95;5.68;;;;;;;8.23;58.61;92573.44;4945251;28;20097;-86
2021/12/06 11:16:53;;;;;;;11.02;5.57;;;;;;;8.95;57.77;92665.53;4946961;28;20039;-87
2021/12/06 11:19:21;;;;;;;12.98;6.78;;;;;;;8.89;57.37;92650.97;4958235;28;20030;-86
2021/12/06 11:21:59;;;;;;;12.45;5.85;;;;;;;8.61;57.61;92636.00;4961867;28;20027;-87
2021/12/06 11:24:43;;;;;;;9.13;5.47;;;;;;;9.08;57.47;92706.09;4940980;28;20047;-86
2021/12/06 11:27:20;;;;;;;11.50;7.05;;;;;;;9.05;57.82;92709.41;4959369;28;20030;-88
2021/12/06 11:29:49;;;;;;;8.40;5.60;;;;;;;8.80;58.17;92665.41;4963247;28;20022;-87
2021/12/06 11:32:14;;;;;;;11.60;5.75;;;;;;;9.10;58.40;92719.81;4961173;28;20042;-86
2021/12/06 11:34:45;;;;;;;13.00;7.07;;;;;;;9.08;59.53;92698.16;4956214;28;20061;-87
2021/12/06 11:37:18;;;;;;;16.15;8.18;;;;;;;9.00;59.23;92697.13;4944306;28;20385;-88
2021/12/06 11:39:47;;;;;;;18.77;9.20;;;;;;;8.67;60.73;92696.41;4960040;28;20030;-89
2021/12/06 11:42:12;;;;;;;15.43;7.20;;;;;;;7.99;59.94;92542.38;4946126;28;20046;-87
2021/12/06 11:44:43;;;;;;;10.75;6.97;;;;;;;8.88;58.96;92653.94;4963184;28;20527;-88
2021/12/06 11:47:18;;;;;;;11.57;7.47;;;;;;;9.36;58.28;92671.78;4962206;28;20055;-87
2021/12/06 11:49:53;;;;;;;13.60;7.63;;;;;;;8.94;57.76;92642.78;4941227;28;20185;-87